.
WxDataArchive / Data Records for 2007-11-28
2007-11-27 November 2007 2007-11-29

Data Records for Wednesday, 28 November 2007

Time	Temp	Chill	HIndex	Humid	Dewpt	 Wind 	HiWind	WindDir	Rain 	Barom 
-----	----	-----	------	-----	-----	------	------	-------	-----	----- 
00:00	22.2	22.2	22.2	78	16.4	0	0	---	0.00	30.397 
00:05	22.1	22.1	22.1	78	16.3	0	0	---	0.00	30.399 
00:10	21.9	21.9	21.9	79	16.4	0	0	---	0.00	30.400 
00:15	21.8	21.8	21.8	79	16.3	0	0	---	0.00	30.402 
00:20	21.6	21.6	21.6	80	16.4	0	0	---	0.00	30.402 
00:25	21.6	21.6	21.6	80	16.4	0	0	---	0.00	30.398 
00:30	21.8	21.8	21.8	80	16.6	0	0	---	0.00	30.396 
00:35	22.1	22.1	22.1	79	16.6	0	1	315	0.00	30.396 
00:40	22.4	22.4	22.4	77	16.3	0	1	315	0.00	30.396 
00:45	22.4	22.4	22.4	77	16.3	0	0	---	0.00	30.391 
00:50	22.4	22.4	22.4	77	16.3	0	0	---	0.00	30.395 
00:55	22.2	22.2	22.2	77	16.1	0	0	---	0.00	30.395 
01:00	22.1	22.1	22.1	77	16.0	0	0	---	0.00	30.394 
01:05	21.9	21.9	21.9	77	15.8	0	0	---	0.00	30.395 
01:10	21.6	21.6	21.6	77	15.5	0	0	---	0.00	30.397 
01:15	21.4	21.4	21.4	78	15.6	0	0	---	0.00	30.394 
01:20	21.4	21.4	21.4	79	15.9	0	1	315	0.00	30.392 
01:25	21.6	21.6	21.6	79	16.1	0	1	315	0.00	30.390 
01:30	21.6	21.6	21.6	78	15.8	0	0	---	0.00	30.390 
01:35	21.6	21.6	21.6	78	15.8	0	0	---	0.00	30.386 
01:40	21.6	21.6	21.6	79	16.1	0	1	315	0.00	30.385 
01:45	21.6	21.6	21.6	79	16.1	0	0	---	0.00	30.386 
01:50	21.6	21.6	21.6	79	16.1	0	0	---	0.00	30.388 
01:55	21.4	21.4	21.4	79	15.9	0	0	---	0.00	30.385 
02:00	21.3	21.3	21.3	79	15.8	0	0	---	0.00	30.383 
02:05	21.1	21.1	21.1	79	15.6	0	0	---	0.00	30.386 
02:10	21.0	21.0	21.0	79	15.5	0	0	---	0.00	30.385 
02:15	20.6	20.6	20.6	80	15.4	0	0	---	0.00	30.386 
02:20	20.5	20.5	20.5	80	15.3	0	0	---	0.00	30.392 
02:25	20.3	20.3	20.3	80	15.1	0	0	---	0.00	30.396 
02:30	20.2	20.2	20.2	81	15.3	0	0	---	0.00	30.398 
02:35	20.0	20.0	20.0	81	15.1	0	0	---	0.00	30.401 
02:40	19.9	19.9	19.9	81	15.0	0	0	---	0.00	30.404 
02:45	19.7	19.7	19.7	82	15.1	0	0	---	0.00	30.409 
02:50	19.5	19.5	19.5	82	14.9	0	0	---	0.00	30.408 
02:55	19.4	19.4	19.4	83	15.1	0	0	---	0.00	30.404 
03:00	19.4	19.4	19.4	83	15.1	0	0	---	0.00	30.402 
03:05	19.2	19.2	19.2	84	15.2	0	0	---	0.00	30.404 
03:10	19.2	19.2	19.2	84	15.2	0	0	---	0.00	30.402 
03:15	19.2	19.2	19.2	85	15.4	0	0	---	0.00	30.398 
03:20	19.9	19.9	19.9	86	16.4	0	1	315	0.00	30.390 
03:25	20.3	20.3	20.3	85	16.5	0	1	315	0.00	30.385 
03:30	20.6	20.6	20.6	84	16.5	0	1	315	0.00	30.384 
03:35	21.0	21.0	21.0	84	16.9	0	2	315	0.00	30.379 
03:40	21.1	21.1	21.1	83	16.8	0	1	315	0.00	30.372 
03:45	21.4	21.4	21.4	82	16.8	1	2	315	0.00	30.367 
03:50	21.8	21.8	21.8	81	16.9	0	1	0	0.00	30.367 
03:55	21.8	21.8	21.8	81	16.9	0	0	---	0.00	30.369 
04:00	21.8	21.8	21.8	81	16.9	0	1	0	0.00	30.368 
04:05	21.8	21.8	21.8	81	16.9	0	1	0	0.00	30.372 
04:10	21.6	21.6	21.6	81	16.7	0	0	---	0.00	30.380 
04:15	21.6	21.6	21.6	81	16.7	0	1	0	0.00	30.380 
04:20	21.6	21.6	21.6	81	16.7	0	1	0	0.00	30.381 
04:25	21.6	21.6	21.6	81	16.7	0	1	0	0.00	30.374 
04:30	21.6	21.6	21.6	81	16.7	0	1	0	0.00	30.375 
04:35	21.6	21.6	21.6	80	16.4	0	1	0	0.00	30.372 
04:40	21.8	21.8	21.8	80	16.6	0	2	0	0.00	30.370 
04:45	21.9	21.9	21.9	80	16.7	0	2	0	0.00	30.370 
04:50	21.9	21.9	21.9	79	16.4	0	1	0	0.00	30.370 
04:55	22.1	22.1	22.1	79	16.6	0	1	0	0.00	30.370 
05:00	21.9	21.9	21.9	79	16.4	0	2	0	0.00	30.367 
05:05	21.9	21.9	21.9	79	16.4	0	2	90	0.00	30.361 
05:10	22.1	22.1	22.1	79	16.6	0	3	112	0.00	30.358 
05:15	22.1	22.1	22.1	79	16.6	0	2	112	0.00	30.356 
05:20	22.1	22.1	22.1	79	16.6	0	2	135	0.00	30.356 
05:25	22.2	22.2	22.2	79	16.7	0	2	135	0.00	30.358 
05:30	22.4	22.4	22.4	78	16.6	0	3	158	0.00	30.363 
05:35	22.4	22.4	22.4	78	16.6	0	2	135	0.00	30.362 
05:40	22.5	22.5	22.5	78	16.7	0	3	112	0.00	30.359 
05:45	22.7	22.7	22.7	78	16.9	0	2	68	0.00	30.358 
05:50	22.9	22.9	22.9	77	16.8	0	3	68	0.00	30.359 
05:55	22.9	22.9	22.9	77	16.8	0	2	68	0.00	30.357 
06:00	22.9	22.9	22.9	77	16.8	0	2	68	0.00	30.356 
06:05	22.9	22.9	22.9	77	16.8	0	1	68	0.00	30.355 
06:10	22.9	22.9	22.9	78	17.1	0	1	68	0.00	30.355 
06:15	22.9	22.9	22.9	78	17.1	0	2	135	0.00	30.351 
06:20	23.0	23.0	23.0	78	17.2	0	2	135	0.00	30.352 
06:25	23.0	23.0	23.0	78	17.2	1	3	112	0.00	30.351 
06:30	23.2	23.2	23.2	78	17.4	1	3	112	0.00	30.342 
06:35	23.3	23.3	23.3	78	17.5	1	3	112	0.00	30.340 
06:40	23.5	23.5	23.5	77	17.4	2	4	112	0.00	30.341 
06:45	23.6	23.6	23.6	77	17.5	1	5	112	0.00	30.341 
06:50	23.8	23.8	23.8	77	17.7	1	3	112	0.00	30.339 
06:55	23.9	23.9	23.9	77	17.8	1	3	112	0.00	30.336 
07:00	24.1	24.1	24.1	77	18.0	2	6	112	0.00	30.317 
07:05	24.1	24.1	24.1	77	18.0	2	5	112	0.00	30.308 
07:10	24.1	24.1	24.1	77	18.0	2	5	112	0.00	30.323 
07:15	24.2	24.2	24.2	78	18.3	1	7	112	0.00	30.324 
07:20	24.4	24.4	24.4	78	18.5	1	3	112	0.00	30.322 
07:25	24.4	24.4	24.4	78	18.5	1	4	112	0.00	30.324 
07:30	24.5	24.5	24.5	78	18.6	0	4	90	0.00	30.329 
07:35	24.7	24.7	24.7	78	18.8	0	2	90	0.00	30.330 
07:40	24.7	24.7	24.7	78	18.8	0	2	90	0.00	30.330 
07:45	24.7	24.7	24.7	78	18.8	0	2	90	0.00	30.336 
07:50	24.8	24.8	24.8	78	18.9	0	2	90	0.00	30.338 
07:55	24.8	24.8	24.8	78	18.9	1	2	90	0.00	30.339 
08:00	24.8	24.8	24.8	78	18.9	1	2	90	0.00	30.329 
08:05	25.0	25.0	25.0	78	19.1	1	3	90	0.00	30.325 
08:10	25.1	25.1	25.1	79	19.5	1	4	112	0.00	30.324 
08:15	25.3	25.3	25.3	78	19.4	1	3	112	0.00	30.325 
08:20	25.4	25.4	25.4	78	19.5	1	4	90	0.00	30.326 
08:25	25.6	25.6	25.6	78	19.7	1	4	90	0.00	30.332 
08:30	25.8	25.8	25.8	78	19.9	1	4	112	0.00	30.321 
08:35	26.1	26.1	26.1	78	20.2	2	4	112	0.00	30.312 
08:40	26.4	26.4	26.4	78	20.5	2	5	112	0.00	30.307 
08:45	26.6	26.6	26.6	79	21.0	2	4	112	0.00	30.309 
08:50	26.9	26.9	26.9	78	21.0	1	4	112	0.00	30.317 
08:55	27.0	27.0	27.0	78	21.1	2	5	112	0.00	30.311 
09:00	27.3	27.3	27.3	77	21.1	1	5	112	0.00	30.310 
09:05	27.6	27.6	27.6	77	21.4	2	5	112	0.00	30.321 
09:10	27.9	27.9	27.9	76	21.3	2	5	90	0.00	30.309 
09:15	28.4	28.4	28.4	76	21.8	1	5	112	0.00	30.306 
09:20	29.1	29.1	29.1	74	21.9	3	9	112	0.00	30.298 
09:25	29.5	29.5	29.5	73	21.9	2	7	112	0.00	30.292 
09:30	30.0	30.0	30.0	73	22.4	1	6	90	0.00	30.295 
09:35	30.1	30.1	30.1	73	22.5	1	4	112	0.00	30.290 
09:40	30.3	30.3	30.3	72	22.4	1	3	90	0.00	30.291 
09:45	30.4	30.4	30.4	72	22.5	1	4	90	0.00	30.288 
09:50	30.6	30.6	30.6	72	22.7	1	4	90	0.00	30.288 
09:55	30.7	30.7	30.7	71	22.4	2	5	112	0.00	30.286 
10:00	30.9	30.9	30.9	71	22.6	2	5	90	0.00	30.287 
10:05	31.0	31.0	31.0	70	22.4	2	7	112	0.00	30.289 
10:10	31.5	31.5	31.5	70	22.9	1	4	112	0.00	30.283 
10:15	31.9	31.9	31.9	70	23.2	2	5	90	0.00	30.280 
10:20	32.4	32.4	32.4	70	23.7	1	5	68	0.00	30.277 
10:25	32.5	32.5	32.5	70	23.8	1	4	158	0.00	30.278 
10:30	32.8	32.8	32.8	70	24.1	1	4	135	0.00	30.277 
10:35	33.1	33.1	33.1	69	24.1	2	5	90	0.00	30.278 
10:40	33.4	33.4	33.4	69	24.3	1	5	90	0.00	30.275 
10:45	33.5	33.5	33.5	69	24.4	1	5	135	0.00	30.273 
10:50	33.8	33.8	33.8	70	25.1	1	4	90	0.00	30.270 
10:55	34.0	34.0	34.0	69	24.9	1	4	112	0.00	30.271 
11:00	34.0	34.0	34.0	69	24.9	1	4	112	0.00	30.271 
11:05	34.1	34.1	34.1	69	25.0	1	3	112	0.00	30.272 
11:10	34.4	34.4	34.4	70	25.6	2	4	135	0.00	30.260 
11:15	34.7	34.7	34.7	70	25.9	1	6	135	0.00	30.255 
11:20	35.2	35.2	35.2	69	26.1	2	5	112	0.00	30.244 
11:25	35.3	35.3	35.3	70	26.5	2	6	90	0.00	30.239 
11:30	35.3	35.3	35.3	70	26.5	1	4	135	0.00	30.238 
11:35	35.5	35.5	35.5	70	26.7	1	4	135	0.00	30.241 
11:40	35.6	35.6	35.6	70	26.8	1	4	135	0.00	30.230 
11:45	35.8	35.8	35.8	70	27.0	2	4	90	0.00	30.222 
11:50	35.8	35.8	35.8	71	27.3	1	2	112	0.00	30.217 
11:55	35.8	35.8	35.8	71	27.3	1	5	135	0.00	30.208 
12:00	35.8	35.8	35.8	71	27.3	2	7	112	0.00	30.203 
12:05	35.9	35.9	35.9	71	27.4	2	7	112	0.00	30.198 
12:10	36.0	36.0	36.0	71	27.5	2	5	135	0.00	30.194 
12:15	36.0	36.0	36.0	71	27.5	2	4	90	0.00	30.190 
12:20	36.0	36.0	36.0	72	27.9	1	6	90	0.00	30.178 
12:25	36.2	36.2	36.2	73	28.4	1	4	112	0.00	30.174 
12:30	36.3	36.3	36.3	73	28.5	2	6	112	0.00	30.161 
12:35	36.6	36.6	36.6	73	28.8	1	5	112	0.00	30.158 
12:40	36.9	36.9	36.9	74	29.4	1	4	112	0.00	30.153 
12:45	37.3	37.3	37.3	73	29.5	2	4	90	0.00	30.145 
12:50	37.6	37.6	37.6	73	29.7	2	6	135	0.00	30.141 
12:55	37.9	37.9	37.9	72	29.7	1	5	112	0.00	30.139 
13:00	38.0	38.0	38.0	73	30.1	2	5	68	0.00	30.140 
13:05	38.2	38.2	38.2	73	30.3	2	5	112	0.00	30.136 
13:10	38.3	38.3	38.3	72	30.1	1	5	90	0.00	30.130 
13:15	38.6	38.6	38.6	72	30.4	2	6	90	0.00	30.126 
13:20	38.8	38.8	38.8	72	30.6	1	5	90	0.00	30.123 
13:25	38.9	38.9	38.9	72	30.7	2	5	112	0.00	30.113 
13:30	39.1	39.1	39.1	72	30.8	2	5	90	0.00	30.113 
13:35	39.2	39.2	39.2	71	30.6	2	6	135	0.00	30.109 
13:40	39.3	39.3	39.3	72	31.0	1	4	45	0.00	30.102 
13:45	39.3	39.3	39.3	72	31.0	1	4	90	0.00	30.096 
13:50	39.5	39.5	39.5	72	31.2	2	5	90	0.00	30.094 
13:55	39.8	39.8	39.8	72	31.5	2	6	112	0.00	30.083 
14:00	39.9	39.9	39.9	72	31.6	2	4	90	0.00	30.083 
14:05	40.1	40.1	40.1	72	31.8	1	5	90	0.00	30.078 
14:10	40.3	40.3	40.3	72	32.0	1	5	112	0.00	30.074 
14:15	40.5	40.5	40.5	72	32.2	1	4	135	0.00	30.068 
14:20	40.8	40.8	40.8	72	32.5	1	3	90	0.00	30.065 
14:25	40.9	40.9	40.9	71	32.2	1	4	112	0.00	30.062 
14:30	41.2	41.2	41.2	71	32.5	1	4	112	0.00	30.055 
14:35	41.5	41.5	41.5	71	32.8	1	4	112	0.00	30.049 
14:40	41.6	41.6	41.6	70	32.6	2	4	135	0.00	30.041 
14:45	41.9	41.9	41.9	70	32.8	1	4	112	0.00	30.032 
14:50	42.2	42.2	42.2	70	33.1	1	4	112	0.00	30.029 
14:55	42.6	42.6	42.6	69	33.2	1	4	158	0.00	30.027 
15:00	42.8	42.8	42.8	69	33.3	1	6	135	0.00	30.021 
15:05	43.1	43.1	43.1	67	32.9	1	4	112	0.00	30.021 
15:10	43.3	43.3	43.3	67	33.1	1	4	112	0.00	30.019 
15:15	43.6	43.6	43.6	66	33.0	1	5	135	0.00	30.011 
15:20	43.8	43.8	43.8	65	32.8	1	3	90	0.00	30.007 
15:25	44.1	44.1	44.1	65	33.1	1	5	112	0.00	30.001 
15:30	44.2	44.2	44.2	64	32.8	2	5	90	0.00	29.998 
15:35	44.5	44.5	44.5	63	32.7	1	4	90	0.00	29.997 
15:40	44.8	44.8	44.8	62	32.6	2	6	90	0.00	29.995 
15:45	45.2	45.2	45.2	60	32.1	2	5	90	0.00	29.990 
15:50	45.7	45.7	45.7	60	32.6	1	4	90	0.00	29.988 
15:55	46.1	46.1	46.1	59	32.6	2	6	112	0.00	29.985 
16:00	46.5	46.5	46.5	59	33.0	1	4	90	0.00	29.978 
16:05	46.5	46.5	46.5	58	32.5	3	7	90	0.00	29.980 
16:10	46.4	46.4	46.4	58	32.4	2	7	112	0.00	29.979 
16:15	46.2	46.2	46.2	58	32.2	2	6	112	0.00	29.975 
16:20	46.1	46.1	46.1	58	32.2	2	5	112	0.00	29.972 
16:25	46.0	46.0	46.0	58	32.1	2	9	90	0.00	29.965 
16:30	45.8	45.8	45.8	59	32.3	2	9	90	0.00	29.963 
16:35	45.7	45.7	45.7	59	32.2	1	4	135	0.00	29.961 
16:40	45.4	45.4	45.4	60	32.3	1	4	135	0.00	29.959 
16:45	45.2	45.2	45.2	60	32.1	1	4	90	0.00	29.961 
16:50	45.2	45.2	45.2	60	32.1	2	7	90	0.00	29.962 
16:55	45.1	45.1	45.1	60	32.1	2	6	112	0.00	29.953 
17:00	44.9	44.9	44.9	60	31.9	2	6	112	0.00	29.951 
17:05	44.8	44.8	44.8	60	31.8	1	4	112	0.00	29.946 
17:10	44.8	44.8	44.8	60	31.8	1	5	112	0.00	29.944 
17:15	44.6	44.6	44.6	61	32.0	1	6	135	0.00	29.945 
17:20	44.5	44.5	44.5	62	32.3	1	4	90	0.00	29.933 
17:25	44.2	44.2	44.2	62	32.0	1	4	112	0.00	29.939 
17:30	44.1	44.1	44.1	62	31.9	1	3	112	0.00	29.937 
17:35	43.9	43.9	43.9	63	32.1	1	3	112	0.00	29.943 
17:40	43.8	43.8	43.8	64	32.4	0	2	112	0.00	29.940 
17:45	43.6	43.6	43.6	64	32.2	1	4	112	0.00	29.938 
17:50	43.6	43.6	43.6	64	32.2	1	4	112	0.00	29.933 
17:55	43.6	43.6	43.6	64	32.2	1	4	90	0.00	29.931 
18:00	43.6	43.6	43.6	64	32.2	2	4	112	0.00	29.931 
18:05	43.6	43.6	43.6	64	32.2	1	4	90	0.00	29.927 
18:10	43.6	43.6	43.6	65	32.6	1	3	90	0.00	29.927 
18:15	43.5	43.5	43.5	65	32.5	0	2	90	0.00	29.930 
18:20	43.5	43.5	43.5	65	32.5	0	2	22	0.00	29.927 
18:25	43.3	43.3	43.3	65	32.3	1	3	22	0.00	29.922 
18:30	43.3	43.3	43.3	65	32.3	0	4	45	0.00	29.930 
18:35	43.2	43.2	43.2	65	32.2	0	2	248	0.00	29.929 
18:40	43.2	43.2	43.2	66	32.6	0	2	248	0.00	29.930 
18:45	43.1	43.1	43.1	65	32.1	0	3	248	0.00	29.928 
18:50	43.1	43.1	43.1	65	32.1	0	2	68	0.00	29.926 
18:55	43.2	43.2	43.2	65	32.2	1	4	90	0.00	29.929 
19:00	43.3	43.3	43.3	64	32.0	1	5	90	0.00	29.922 
19:05	43.3	43.3	43.3	64	32.0	0	2	22	0.00	29.924 
19:10	43.3	43.3	43.3	64	32.0	1	4	0	0.00	29.926 
19:15	43.5	43.5	43.5	63	31.8	0	2	270	0.00	29.923 
19:20	43.5	43.5	43.5	63	31.8	1	5	270	0.00	29.919 
19:25	43.5	43.5	43.5	63	31.8	0	3	90	0.00	29.915 
19:30	43.6	43.6	43.6	63	31.8	1	3	248	0.00	29.916 
19:35	43.6	43.6	43.6	63	31.8	0	2	248	0.00	29.917 
19:40	43.6	43.6	43.6	63	31.8	0	5	248	0.00	29.917 
19:45	43.5	43.5	43.5	63	31.8	1	4	202	0.00	29.916 
19:50	43.5	43.5	43.5	63	31.8	1	5	248	0.00	29.916 
19:55	43.8	43.8	43.8	62	31.6	2	6	248	0.00	29.918 
20:00	43.8	43.8	43.8	63	32.0	1	7	248	0.00	29.916 
20:05	43.8	43.8	43.8	63	32.0	1	5	248	0.00	29.913 
20:10	43.9	43.9	43.9	62	31.7	1	4	292	0.00	29.911 
20:15	44.1	44.1	44.1	62	31.9	2	9	248	0.00	29.906 
20:20	44.2	44.2	44.2	62	32.0	1	5	248	0.00	29.906 
20:25	44.3	44.3	44.3	61	31.7	1	7	248	0.00	29.903 
20:30	44.6	44.6	44.6	60	31.6	2	9	248	0.00	29.896 
20:35	44.8	44.8	44.8	60	31.8	2	7	248	0.00	29.896 
20:40	45.1	45.1	45.1	59	31.6	3	6	270	0.00	29.899 
20:45	45.4	45.4	45.4	59	31.9	2	7	270	0.00	29.894 
20:50	45.5	45.5	45.5	58	31.6	3	9	248	0.00	29.894 
20:55	45.8	45.8	45.8	57	31.4	3	8	248	0.00	29.885 
21:00	46.0	44.2	46.0	56	31.2	4	11	248	0.00	29.881 
21:05	46.1	46.1	46.1	56	31.3	3	10	248	0.00	29.876 
21:10	46.1	46.1	46.1	56	31.3	3	10	248	0.00	29.877 
21:15	46.1	46.1	46.1	56	31.3	3	7	248	0.00	29.878 
21:20	46.1	46.1	46.1	56	31.3	3	11	248	0.00	29.877 
21:25	46.2	44.5	46.2	56	31.4	4	10	248	0.00	29.877 
21:30	46.2	44.5	46.2	56	31.4	4	12	248	0.00	29.877 
21:35	46.2	46.2	46.2	56	31.4	3	12	248	0.00	29.875 
21:40	46.1	46.1	46.1	57	31.7	3	9	248	0.00	29.876 
21:45	46.1	44.4	46.1	56	31.3	4	11	248	0.00	29.875 
21:50	46.1	44.4	46.1	56	31.3	4	12	248	0.00	29.870 
21:55	46.1	46.1	46.1	57	31.7	3	7	248	0.00	29.872 
22:00	46.0	46.0	46.0	57	31.6	3	11	248	0.00	29.869 
22:05	46.0	44.2	46.0	57	31.6	4	12	248	0.00	29.870 
22:10	46.0	44.2	46.0	57	31.6	4	11	248	0.00	29.868 
22:15	45.8	45.8	45.8	57	31.4	3	9	248	0.00	29.864 
22:20	45.8	45.8	45.8	58	31.9	3	6	248	0.00	29.858 
22:25	45.7	43.9	45.7	58	31.8	4	11	248	0.00	29.860 
22:30	45.7	45.7	45.7	58	31.8	3	7	248	0.00	29.857 
22:35	45.7	45.7	45.7	58	31.8	2	6	248	0.00	29.858 
22:40	45.7	43.9	45.7	58	31.8	4	9	248	0.00	29.856 
22:45	45.5	45.5	45.5	58	31.6	3	6	248	0.00	29.856 
22:50	45.5	45.5	45.5	58	31.6	3	12	248	0.00	29.853 
22:55	45.5	45.5	45.5	58	31.6	3	9	248	0.00	29.849 
23:00	45.7	45.7	45.7	58	31.8	3	8	248	0.00	29.851 
23:05	45.7	43.9	45.7	57	31.3	4	12	248	0.00	29.850 
23:10	45.8	45.8	45.8	57	31.4	3	8	248	0.00	29.845 
23:15	45.8	45.8	45.8	57	31.4	3	6	248	0.00	29.843 
23:20	45.8	44.0	45.8	56	31.0	4	13	248	0.00	29.844 
23:25	46.1	43.6	46.1	56	31.3	5	16	248	0.00	29.841 
23:30	46.1	44.4	46.1	56	31.3	4	13	248	0.00	29.839 
23:35	46.1	46.1	46.1	56	31.3	2	7	248	0.00	29.837 
23:40	46.0	44.2	46.0	56	31.2	4	11	248	0.00	29.838 
23:45	46.0	46.0	46.0	56	31.2	3	9	248	0.00	29.838 
23:50	46.0	44.2	46.0	56	31.2	4	13	248	0.00	29.841 
23:55	46.0	44.2	46.0	56	31.2	4	10	248	0.00	29.843 

CoCoRaHS
IN-AL-39
A2 Web Hosting
Creative Commons License
GoDaddy
Look for:

loaded 2017-12-13 19:58:41 • last modified 2010-11-18 10:43:29
Privacy PolicyDisclaimer
• wx.awcolley.com is powered by PmWiki v.2002016 •
• all content (unless otherwise noted) © 2017 A W Colley